createdAt,value
2023-04-10T00:01:18.570Z,9.00
2023-04-10T00:04:04.926Z,8.98
2023-04-10T00:06:50.837Z,9.73
2023-04-10T00:09:36.213Z,9.70
2023-04-10T00:12:21.808Z,8.88
2023-04-10T00:15:08.363Z,8.63
2023-04-10T00:17:55.360Z,8.80
2023-04-10T00:20:40.826Z,9.60
2023-04-10T00:23:26.472Z,9.73
2023-04-10T00:26:12.362Z,8.65
2023-04-10T00:28:59.675Z,8.70
2023-04-10T00:31:45.415Z,8.30
2023-04-10T00:34:31.422Z,8.05
2023-04-10T00:37:17.494Z,8.23
2023-04-10T00:40:04.266Z,7.50
2023-04-10T00:42:49.793Z,8.63
2023-04-10T00:45:35.559Z,8.90
2023-04-10T00:48:21.300Z,9.10
2023-04-10T00:51:07.118Z,8.68
2023-04-10T00:53:53.308Z,9.52
2023-04-10T00:56:40.340Z,11.55
2023-04-10T00:59:25.883Z,10.02
2023-04-10T01:02:13.019Z,9.60
2023-04-10T01:04:58.733Z,9.00
2023-04-10T01:07:52.649Z,8.40
2023-04-10T01:10:52.619Z,8.00
2023-04-10T01:13:49.433Z,8.07
2023-04-10T01:16:41.507Z,8.02
2023-04-10T01:19:33.033Z,7.18
2023-04-10T01:22:21.762Z,9.05
2023-04-10T01:25:39.494Z,8.07
2023-04-10T01:29:03.575Z,9.23
2023-04-10T01:32:08.199Z,9.18
2023-04-10T01:34:57.077Z,8.32
2023-04-10T01:37:44.249Z,8.45
2023-04-10T01:40:31.658Z,8.25
2023-04-10T01:43:19.524Z,8.48
2023-04-10T01:46:08.642Z,8.07
2023-04-10T01:48:55.279Z,8.70
2023-04-10T01:51:40.997Z,8.90
2023-04-10T01:54:31.389Z,8.63
2023-04-10T01:57:17.553Z,7.88
2023-04-10T02:00:12.238Z,8.13
2023-04-10T02:03:00.558Z,7.88
2023-04-10T02:05:56.780Z,7.47
2023-04-10T02:09:03.884Z,6.95
2023-04-10T02:12:02.101Z,7.93
2023-04-10T02:14:49.040Z,7.75
2023-04-10T02:17:35.714Z,8.10
2023-04-10T02:20:22.952Z,8.57
2023-04-10T02:23:08.885Z,9.32
2023-04-10T02:25:57.070Z,9.02
2023-04-10T02:28:42.169Z,7.93
2023-04-10T02:31:27.843Z,7.90
2023-04-10T02:34:13.328Z,7.28
2023-04-10T02:36:58.725Z,7.65
2023-04-10T02:39:44.590Z,7.38
2023-04-10T02:42:29.890Z,7.57
2023-04-10T02:45:18.760Z,7.43
2023-04-10T02:48:06.354Z,7.68
2023-04-10T02:50:58.991Z,7.07
2023-04-10T02:53:46.830Z,7.20
2023-04-10T02:56:41.997Z,6.90
2023-04-10T02:59:27.833Z,7.22
2023-04-10T03:02:13.425Z,7.35
2023-04-10T03:05:00.661Z,7.30
2023-04-10T03:07:46.770Z,7.40
2023-04-10T03:10:32.186Z,7.00
2023-04-10T03:13:17.693Z,6.20
2023-04-10T03:16:03.371Z,6.70
2023-04-10T03:18:49.266Z,6.38
2023-04-10T03:21:34.760Z,6.30
2023-04-10T03:24:20.732Z,6.25
2023-04-10T03:27:06.531Z,6.40
2023-04-10T03:29:52.365Z,6.38
2023-04-10T03:32:37.778Z,6.10
2023-04-10T03:35:23.662Z,6.22
2023-04-10T03:38:08.747Z,6.72
2023-04-10T03:40:54.735Z,6.47
2023-04-10T03:43:42.626Z,6.78
2023-04-10T03:46:28.617Z,6.70
2023-04-10T03:49:14.183Z,6.20
2023-04-10T03:51:59.694Z,6.47
2023-04-10T03:54:46.713Z,6.55
2023-04-10T03:57:42.038Z,6.38
2023-04-10T04:00:28.165Z,6.30
2023-04-10T04:06:15.527Z,6.15
2023-04-10T04:09:12.558Z,6.03
2023-04-10T04:11:58.157Z,6.10
2023-04-10T04:15:08.527Z,6.22
2023-04-10T04:18:09.240Z,5.53
2023-04-10T04:21:06.359Z,5.47
2023-04-10T04:24:17.284Z,5.68
2023-04-10T04:27:21.732Z,5.20
2023-04-10T04:30:22.620Z,6.10
2023-04-10T04:33:26.754Z,5.82
2023-04-10T04:36:31.130Z,5.47
2023-04-10T04:39:42.592Z,5.57
2023-04-10T04:42:43.501Z,5.35
2023-04-10T04:45:38.033Z,6.03
2023-04-10T04:48:26.495Z,5.80
2023-04-10T04:51:39.959Z,5.30
2023-04-10T04:54:41.387Z,5.53
2023-04-10T04:57:53.770Z,5.57
2023-04-10T05:00:59.672Z,5.13
2023-04-10T05:04:11.460Z,5.40
2023-04-10T05:07:15.686Z,5.18
2023-04-10T05:10:21.080Z,5.53
2023-04-10T05:13:38.996Z,5.03
2023-04-10T05:16:42.260Z,5.05
2023-04-10T05:19:41.991Z,4.82
2023-04-10T05:22:46.624Z,5.60
2023-04-10T05:25:37.716Z,6.18
2023-04-10T05:28:33.591Z,6.10
2023-04-10T05:31:48.507Z,5.53
2023-04-10T05:34:38.350Z,5.72
2023-04-10T05:37:30.523Z,6.05
2023-04-10T05:40:34.929Z,6.30
2023-04-10T05:43:39.567Z,5.55
2023-04-10T05:46:51.216Z,7.00
2023-04-10T05:49:52.767Z,6.20
2023-04-10T05:52:58.434Z,7.00
2023-04-10T05:56:04.352Z,6.38
2023-04-10T05:59:23.466Z,6.78
2023-04-10T06:02:35.782Z,6.30
2023-04-10T06:05:21.538Z,6.30
2023-04-10T06:08:07.480Z,6.15
2023-04-10T06:10:52.811Z,6.00
2023-04-10T06:13:38.328Z,6.72
2023-04-10T06:16:24.244Z,7.45
2023-04-10T06:19:09.445Z,6.63
2023-04-10T06:21:55.192Z,6.90
2023-04-10T06:24:41.005Z,7.30
2023-04-10T06:27:28.210Z,7.30
2023-04-10T06:30:13.739Z,6.65
2023-04-10T06:32:59.767Z,7.53
2023-04-10T06:35:45.544Z,7.13
2023-04-10T06:38:30.974Z,7.20
2023-04-10T06:41:16.517Z,6.75
2023-04-10T06:44:03.464Z,7.22
2023-04-10T06:46:48.985Z,7.00
2023-04-10T06:49:34.274Z,6.85
2023-04-10T06:52:20.217Z,6.70
2023-04-10T06:55:06.411Z,6.93
2023-04-10T06:57:51.722Z,6.20
2023-04-10T07:00:37.513Z,6.47
2023-04-10T07:03:22.932Z,7.50
2023-04-10T07:06:10.547Z,7.20
2023-04-10T07:08:56.165Z,7.45
2023-04-10T07:11:41.888Z,7.70
2023-04-10T07:14:27.277Z,7.20
2023-04-10T07:17:12.585Z,6.63
2023-04-10T07:19:58.282Z,7.30
2023-04-10T07:22:43.322Z,6.97
2023-04-10T07:25:28.643Z,7.13
2023-04-10T07:28:14.123Z,6.80
2023-04-10T07:30:59.606Z,6.63
2023-04-10T07:33:48.251Z,7.13
2023-04-10T07:36:34.074Z,7.20
2023-04-10T07:39:19.488Z,6.13
2023-04-10T07:42:05.020Z,6.72
2023-04-10T07:44:50.608Z,6.70
2023-04-10T07:47:36.333Z,6.32
2023-04-10T07:50:21.906Z,6.97
2023-04-10T07:53:09.982Z,7.00
2023-04-10T07:55:55.230Z,7.30
2023-04-10T07:58:40.999Z,6.60
2023-04-10T08:01:26.126Z,5.85
2023-04-10T08:04:12.201Z,5.85
2023-04-10T08:06:57.555Z,6.50
2023-04-10T08:09:42.913Z,6.60
2023-04-10T08:12:28.254Z,5.93
2023-04-10T08:15:13.634Z,6.47
2023-04-10T08:17:59.116Z,6.60
2023-04-10T08:20:44.336Z,6.47
2023-04-10T08:23:29.733Z,6.25
2023-04-10T08:26:15.376Z,6.22
2023-04-10T08:29:00.909Z,7.82
2023-04-10T08:31:46.521Z,6.57
2023-04-10T08:34:31.634Z,6.43
2023-04-10T08:37:17.203Z,6.05
2023-04-10T08:40:02.490Z,7.30
2023-04-10T08:42:48.057Z,5.65
2023-04-10T08:45:33.874Z,6.68
2023-04-10T08:48:20.500Z,5.80
2023-04-10T08:51:12.786Z,5.47
2023-04-10T08:54:08.614Z,5.68
2023-04-10T08:56:55.215Z,5.15
2023-04-10T08:59:40.494Z,5.72
2023-04-10T09:02:26.063Z,6.82
2023-04-10T09:05:13.050Z,6.80
2023-04-10T09:07:58.670Z,5.78
2023-04-10T09:10:44.033Z,6.07
2023-04-10T09:13:41.082Z,6.20
2023-04-10T09:16:29.483Z,7.03
2023-04-10T09:19:30.505Z,5.97
2023-04-10T09:22:16.782Z,7.10
2023-04-10T09:25:03.709Z,6.63
2023-04-10T09:28:17.500Z,5.80
2023-04-10T09:31:05.567Z,6.03
2023-04-10T09:34:21.584Z,6.80
2023-04-10T09:37:08.999Z,6.90
2023-04-10T09:39:54.365Z,6.60
2023-04-10T09:42:39.877Z,6.47
2023-04-10T09:45:25.613Z,5.63
2023-04-10T09:48:11.145Z,6.80
2023-04-10T09:50:57.656Z,6.57
2023-04-10T09:53:50.222Z,6.10
2023-04-10T09:56:38.669Z,5.90
2023-04-10T10:03:27.923Z,5.60
2023-04-10T10:06:13.494Z,5.75
2023-04-10T10:09:04.316Z,6.18
2023-04-10T10:11:50.943Z,7.10
2023-04-10T10:15:00.837Z,6.57
2023-04-10T10:18:08.790Z,7.22
2023-04-10T10:20:54.617Z,7.40
2023-04-10T10:23:42.127Z,7.05
2023-04-10T10:26:30.065Z,6.40
2023-04-10T10:29:17.376Z,6.97
2023-04-10T10:32:06.170Z,7.07
2023-04-10T10:34:53.722Z,6.70
2023-04-10T10:37:39.846Z,6.22
2023-04-10T10:40:30.990Z,7.13
2023-04-10T10:43:24.913Z,6.57
2023-04-10T10:46:17.273Z,5.82
2023-04-10T10:49:02.694Z,6.78
2023-04-10T10:51:50.257Z,6.53
2023-04-10T10:54:40.359Z,6.35
2023-04-10T10:57:46.500Z,6.05
2023-04-10T11:01:07.241Z,6.55
2023-04-10T11:03:54.838Z,5.80
2023-04-10T11:06:51.976Z,5.82
2023-04-10T11:09:49.011Z,6.05
2023-04-10T11:13:12.602Z,5.40
2023-04-10T11:15:58.776Z,6.45
2023-04-10T11:18:53.378Z,5.85
2023-04-10T11:22:08.084Z,7.43
2023-04-10T11:25:02.486Z,6.50
2023-04-10T11:27:52.741Z,6.88
2023-04-10T11:30:38.396Z,6.07
2023-04-10T11:33:23.535Z,6.40
2023-04-10T11:36:09.185Z,6.82
2023-04-10T11:38:56.498Z,5.90
2023-04-10T11:41:46.793Z,7.18
2023-04-10T11:44:39.055Z,6.22
2023-04-10T11:47:24.344Z,6.03
2023-04-10T11:50:10.357Z,5.85
2023-04-10T11:52:56.605Z,5.88
2023-04-10T11:55:42.526Z,5.20
2023-04-10T11:58:31.930Z,5.28
2023-04-10T12:01:21.617Z,5.93
2023-04-10T12:04:27.466Z,5.47
2023-04-10T12:07:12.862Z,5.65
2023-04-10T12:09:58.821Z,5.20
2023-04-10T12:12:44.451Z,4.80
2023-04-10T12:15:30.832Z,5.70
2023-04-10T12:18:16.035Z,5.97
2023-04-10T12:21:02.375Z,4.60
2023-04-10T12:23:47.628Z,5.30
2023-04-10T12:26:33.024Z,5.57
2023-04-10T12:29:18.357Z,5.47
2023-04-10T12:32:10.645Z,4.60
2023-04-10T12:37:54.748Z,4.90
2023-04-10T12:40:58.300Z,5.13
2023-04-10T12:43:44.844Z,4.85
2023-04-10T12:46:30.236Z,5.18
2023-04-10T12:49:17.004Z,4.75
2023-04-10T12:52:02.474Z,4.32
2023-04-10T12:54:47.960Z,4.30
2023-04-10T12:57:33.413Z,4.93
2023-04-10T13:00:19.753Z,4.00
2023-04-10T13:03:05.440Z,4.00
2023-04-10T13:05:52.039Z,4.25
2023-04-10T13:08:37.084Z,4.25
2023-04-10T13:11:23.123Z,4.22
2023-04-10T13:14:09.038Z,4.78
2023-04-10T13:16:54.185Z,3.70
2023-04-10T13:19:39.518Z,4.28
2023-04-10T13:22:25.089Z,4.38
2023-04-10T13:25:10.523Z,4.07
2023-04-10T13:27:56.062Z,3.92
2023-04-10T13:30:42.238Z,3.80
2023-04-10T13:33:27.768Z,4.30
2023-04-10T13:36:13.975Z,4.28
2023-04-10T13:38:59.784Z,4.93
2023-04-10T13:41:45.075Z,4.57
2023-04-10T13:44:30.708Z,4.20
2023-04-10T13:47:16.395Z,4.57
2023-04-10T13:50:01.858Z,5.05
2023-04-10T13:52:47.417Z,4.43
2023-04-10T13:55:33.002Z,4.65
2023-04-10T13:58:18.315Z,4.20
2023-04-10T14:01:03.902Z,4.88
2023-04-10T14:03:49.520Z,4.50
2023-04-10T14:06:35.216Z,3.95
2023-04-10T14:09:20.320Z,4.53
2023-04-10T14:12:05.690Z,4.00
2023-04-10T14:14:51.185Z,3.45
2023-04-10T14:17:36.651Z,4.32
2023-04-10T14:20:21.997Z,4.82
2023-04-10T14:23:07.267Z,4.50
2023-04-10T14:25:52.685Z,3.90
2023-04-10T14:28:38.108Z,4.18
2023-04-10T14:31:23.469Z,4.10
2023-04-10T14:34:09.286Z,4.40
2023-04-10T14:36:55.908Z,4.97
2023-04-10T14:39:41.549Z,5.13
2023-04-10T14:42:27.327Z,5.78
2023-04-10T14:45:12.644Z,5.30
2023-04-10T14:47:58.226Z,5.20
2023-04-10T14:50:43.886Z,4.78
2023-04-10T14:53:29.392Z,4.95
2023-04-10T14:56:15.698Z,4.78
2023-04-10T14:59:00.782Z,5.18
2023-04-10T15:01:46.384Z,5.78
2023-04-10T15:04:31.675Z,5.35
2023-04-10T15:07:16.993Z,5.55
2023-04-10T15:10:02.657Z,5.07
2023-04-10T15:12:47.854Z,5.25
2023-04-10T15:15:33.364Z,5.40
2023-04-10T15:18:18.860Z,5.28
2023-04-10T15:21:05.006Z,5.25
2023-04-10T15:23:50.554Z,5.50
2023-04-10T15:26:35.755Z,5.43
2023-04-10T15:29:21.462Z,5.38
2023-04-10T15:32:06.967Z,5.00
2023-04-10T15:34:52.722Z,5.95
2023-04-10T15:37:37.784Z,5.25
2023-04-10T15:40:23.165Z,5.38
2023-04-10T15:43:08.669Z,5.60
2023-04-10T15:45:54.012Z,4.78
2023-04-10T15:48:39.383Z,5.18
2023-04-10T15:51:24.791Z,4.93
2023-04-10T15:54:10.951Z,4.95
2023-04-10T15:56:57.362Z,4.75
2023-04-10T15:59:42.678Z,5.47
2023-04-10T16:02:28.703Z,6.50
2023-04-10T16:05:14.434Z,6.00
2023-04-10T16:07:59.962Z,6.60
2023-04-10T16:10:45.801Z,7.68
2023-04-10T16:13:31.255Z,7.03
2023-04-10T16:16:17.971Z,6.60
2023-04-10T16:19:03.413Z,6.07
2023-04-10T16:21:49.164Z,5.68
2023-04-10T16:24:34.934Z,5.93
2023-04-10T16:27:20.353Z,5.70
2023-04-10T16:30:06.603Z,6.03
2023-04-10T16:32:52.136Z,5.68
2023-04-10T16:35:37.469Z,5.70
2023-04-10T16:38:22.809Z,5.82
2023-04-10T16:41:09.985Z,5.45
2023-04-10T16:43:55.446Z,5.88
2023-04-10T16:46:40.866Z,4.97
2023-04-10T16:49:26.580Z,5.30
2023-04-10T16:52:15.017Z,5.25
2023-04-10T16:55:00.387Z,4.45
2023-04-10T16:57:46.309Z,4.32
2023-04-10T17:00:31.759Z,4.00
2023-04-10T17:03:17.177Z,4.18
2023-04-10T17:06:02.612Z,3.78
2023-04-10T17:08:48.315Z,3.60
2023-04-10T17:11:33.301Z,3.42
2023-04-10T17:14:19.868Z,3.80
2023-04-10T17:17:05.274Z,3.38
2023-04-10T17:19:50.670Z,3.70
2023-04-10T17:22:36.408Z,3.78
2023-04-10T17:25:21.598Z,4.07
2023-04-10T17:28:07.800Z,3.92
2023-04-10T17:30:53.329Z,3.80
2023-04-10T17:33:41.622Z,4.07
2023-04-10T17:36:27.091Z,4.05
2023-04-10T17:39:12.623Z,4.38
2023-04-10T17:41:58.207Z,4.00
2023-04-10T17:44:43.558Z,4.45
2023-04-10T17:47:29.247Z,3.40
2023-04-10T17:50:14.678Z,4.32
2023-04-10T17:53:00.915Z,3.60
2023-04-10T17:55:46.638Z,3.95
2023-04-10T17:58:32.234Z,3.80
2023-04-10T18:01:22.562Z,4.93
2023-04-10T18:04:08.316Z,4.43
2023-04-10T18:06:53.955Z,3.75
2023-04-10T18:09:39.409Z,3.90
2023-04-10T18:12:25.387Z,3.45
2023-04-10T18:15:11.005Z,3.47
2023-04-10T18:17:56.400Z,3.50
2023-04-10T18:20:41.969Z,3.90
2023-04-10T18:23:28.257Z,3.90
2023-04-10T18:26:13.943Z,3.50
2023-04-10T18:29:00.736Z,3.58
2023-04-10T18:31:46.093Z,3.58
2023-04-10T18:34:31.562Z,3.50
2023-04-10T18:37:16.941Z,3.10
2023-04-10T18:40:09.983Z,3.35
2023-04-10T18:42:59.761Z,2.90
2023-04-10T18:45:45.461Z,2.95
2023-04-10T18:48:31.096Z,2.97
2023-04-10T18:51:16.408Z,3.00
2023-04-10T18:54:02.972Z,2.70
2023-04-10T18:56:48.232Z,2.40
2023-04-10T18:59:33.998Z,3.00
2023-04-10T19:02:20.295Z,2.10
2023-04-10T19:05:06.310Z,2.20
2023-04-10T19:08:03.141Z,2.45
2023-04-10T19:10:49.500Z,2.30
2023-04-10T19:13:34.869Z,2.20
2023-04-10T19:16:20.510Z,2.35
2023-04-10T19:19:06.003Z,2.72
2023-04-10T19:21:51.643Z,2.25
2023-04-10T19:24:37.081Z,2.30
2023-04-10T19:27:22.717Z,2.20
2023-04-10T19:30:08.678Z,2.30
2023-04-10T19:32:54.275Z,2.92
2023-04-10T19:35:39.532Z,2.25
2023-04-10T19:38:24.927Z,2.50
2023-04-10T19:41:17.648Z,2.30
2023-04-10T19:44:02.791Z,2.60
2023-04-10T19:46:48.512Z,2.50
2023-04-10T19:49:34.895Z,3.55
2023-04-10T19:52:20.478Z,2.05
2023-04-10T19:55:06.329Z,2.40
2023-04-10T19:57:52.198Z,2.22
2023-04-10T20:00:37.318Z,2.60
2023-04-10T20:03:26.679Z,2.60
2023-04-10T20:06:12.144Z,2.33
2023-04-10T20:08:57.727Z,2.65
2023-04-10T20:11:43.229Z,2.88
2023-04-10T20:14:29.603Z,3.03
2023-04-10T20:17:16.444Z,2.58
2023-04-10T20:20:01.684Z,3.42
2023-04-10T20:22:47.018Z,3.42
2023-04-10T20:25:32.421Z,3.15
2023-04-10T20:28:18.025Z,3.22
2023-04-10T20:31:03.455Z,3.38
2023-04-10T20:33:49.204Z,3.35
2023-04-10T20:36:35.103Z,3.00
2023-04-10T20:39:20.766Z,3.00
2023-04-10T20:42:06.515Z,3.13
2023-04-10T20:44:51.527Z,3.58
2023-04-10T20:47:36.884Z,3.00
2023-04-10T20:50:22.318Z,3.08
2023-04-10T20:53:07.918Z,3.47
2023-04-10T20:55:54.098Z,3.03
2023-04-10T20:58:39.636Z,3.70
2023-04-10T21:01:25.380Z,2.75
2023-04-10T21:04:11.208Z,2.92
2023-04-10T21:06:56.874Z,2.88
2023-04-10T21:09:42.074Z,2.30
2023-04-10T21:12:27.440Z,2.80
2023-04-10T21:15:12.932Z,2.40
2023-04-10T21:17:58.512Z,2.67
2023-04-10T21:20:44.717Z,2.78
2023-04-10T21:23:30.692Z,4.07
2023-04-10T21:26:15.951Z,3.50
2023-04-10T21:29:01.612Z,3.60
2023-04-10T21:31:47.903Z,3.92
2023-04-10T21:34:34.763Z,3.33
2023-04-10T21:37:20.177Z,3.35
2023-04-10T21:40:06.213Z,3.42
2023-04-10T21:42:51.774Z,4.00
2023-04-10T21:45:38.585Z,3.20
2023-04-10T21:48:23.796Z,2.42
2023-04-10T21:51:09.805Z,1.80
2023-04-10T21:53:55.333Z,2.05
2023-04-10T21:56:42.044Z,3.13
2023-04-10T21:59:27.516Z,2.00
2023-04-10T22:02:13.195Z,2.63
2023-04-10T22:04:58.686Z,2.30
2023-04-10T22:07:44.358Z,2.05
2023-04-10T22:10:29.782Z,2.38
2023-04-10T22:13:27.428Z,2.47
2023-04-10T22:16:16.490Z,2.33
2023-04-10T22:19:01.777Z,2.55
2023-04-10T22:21:46.945Z,1.95
2023-04-10T22:24:33.948Z,1.50
2023-04-10T22:27:20.652Z,1.73
2023-04-10T22:30:07.041Z,1.33
2023-04-10T22:32:58.557Z,1.13
2023-04-10T22:35:44.162Z,1.23
2023-04-10T22:38:29.305Z,1.50
2023-04-10T22:41:14.701Z,1.00
2023-04-10T22:44:00.195Z,1.30
2023-04-10T22:46:48.087Z,1.60
2023-04-10T22:49:33.296Z,1.20
2023-04-10T22:52:18.752Z,1.42
2023-04-10T22:55:06.737Z,1.40
2023-04-10T22:57:52.150Z,1.50
2023-04-10T23:00:37.776Z,1.60
2023-04-10T23:03:23.170Z,1.40
2023-04-10T23:06:08.864Z,1.50
2023-04-10T23:08:54.258Z,1.73
2023-04-10T23:11:39.722Z,1.55
2023-04-10T23:14:25.299Z,2.30
2023-04-10T23:17:10.648Z,1.40
2023-04-10T23:19:56.106Z,1.65
2023-04-10T23:22:41.638Z,1.85
2023-04-10T23:25:26.942Z,1.50
2023-04-10T23:28:12.791Z,2.08
2023-04-10T23:30:58.288Z,1.50
2023-04-10T23:33:43.527Z,1.42
2023-04-10T23:36:28.841Z,1.17
2023-04-10T23:39:14.345Z,1.75
2023-04-10T23:41:59.935Z,1.98
2023-04-10T23:44:45.411Z,1.67
2023-04-10T23:47:30.774Z,2.10
2023-04-10T23:50:16.038Z,2.33
2023-04-10T23:53:02.269Z,2.05
2023-04-10T23:55:48.009Z,2.17
2023-04-10T23:58:33.277Z,2.45
